sensor_id;sensor_type;location;lat;lon;timestamp;pressure;altitude;pressure_sealevel;temperature;humidity
63097;BME280;49185;42.320;23.198;2023-04-12T00:02:13;94074.31;;;6.60;74.24
63097;BME280;49185;42.320;23.198;2023-04-12T00:04:38;94070.38;;;6.29;76.02
63097;BME280;49185;42.320;23.198;2023-04-12T00:07:04;94076.47;;;6.29;76.63
63097;BME280;49185;42.320;23.198;2023-04-12T00:09:30;94073.41;;;6.37;75.81
63097;BME280;49185;42.320;23.198;2023-04-12T00:11:56;94068.53;;;6.97;73.39
63097;BME280;49185;42.320;23.198;2023-04-12T00:14:23;94065.44;;;6.83;74.22
63097;BME280;49185;42.320;23.198;2023-04-12T00:16:48;94061.25;;;7.04;73.04
63097;BME280;49185;42.320;23.198;2023-04-12T00:19:14;94052.75;;;7.41;72.35
63097;BME280;49185;42.320;23.198;2023-04-12T00:21:39;94060.88;;;7.78;70.46
63097;BME280;49185;42.320;23.198;2023-04-12T00:24:05;94053.56;;;7.64;69.83
63097;BME280;49185;42.320;23.198;2023-04-12T00:26:30;94049.44;;;7.73;69.34
63097;BME280;49185;42.320;23.198;2023-04-12T00:28:55;94047.50;;;7.90;68.43
63097;BME280;49185;42.320;23.198;2023-04-12T00:31:21;94049.53;;;8.60;65.18
63097;BME280;49185;42.320;23.198;2023-04-12T00:33:46;94044.22;;;8.05;67.91
63097;BME280;49185;42.320;23.198;2023-04-12T00:36:12;94047.41;;;7.58;69.72
63097;BME280;49185;42.320;23.198;2023-04-12T00:38:37;94038.75;;;7.23;71.89
63097;BME280;49185;42.320;23.198;2023-04-12T00:41:03;94033.19;;;7.86;69.32
63097;BME280;49185;42.320;23.198;2023-04-12T00:43:28;94039.41;;;7.75;69.32
63097;BME280;49185;42.320;23.198;2023-04-12T00:45:54;94043.06;;;8.23;67.70
63097;BME280;49185;42.320;23.198;2023-04-12T00:48:22;94051.94;;;8.61;66.12
63097;BME280;49185;42.320;23.198;2023-04-12T00:50:48;94047.19;;;8.36;67.18
63097;BME280;49185;42.320;23.198;2023-04-12T00:53:14;94036.19;;;7.29;71.59
63097;BME280;49185;42.320;23.198;2023-04-12T00:55:41;94035.53;;;6.99;72.72
63097;BME280;49185;42.320;23.198;2023-04-12T00:58:08;94043.91;;;7.74;70.58
63097;BME280;49185;42.320;23.198;2023-04-12T01:00:33;94039.22;;;7.82;69.76
63097;BME280;49185;42.320;23.198;2023-04-12T01:02:59;94024.28;;;7.09;72.01
63097;BME280;49185;42.320;23.198;2023-04-12T01:05:24;94033.53;;;7.07;73.04
63097;BME280;49185;42.320;23.198;2023-04-12T01:13:17;94026.34;;;7.46;70.79
63097;BME280;49185;42.320;23.198;2023-04-12T01:16:58;94027.28;;;7.35;71.19
63097;BME280;49185;42.320;23.198;2023-04-12T01:22:12;94016.00;;;7.22;72.39
63097;BME280;49185;42.320;23.198;2023-04-12T01:25:03;94023.16;;;7.44;71.14
63097;BME280;49185;42.320;23.198;2023-04-12T01:27:42;94015.50;;;7.26;71.81
63097;BME280;49185;42.320;23.198;2023-04-12T01:30:11;94018.00;;;6.76;73.14
63097;BME280;49185;42.320;23.198;2023-04-12T01:32:39;94024.03;;;6.38;75.00
63097;BME280;49185;42.320;23.198;2023-04-12T01:35:07;94024.97;;;6.82;73.57
63097;BME280;49185;42.320;23.198;2023-04-12T01:37:34;94019.78;;;6.37;75.66
63097;BME280;49185;42.320;23.198;2023-04-12T01:40:00;94014.00;;;6.23;76.37
63097;BME280;49185;42.320;23.198;2023-04-12T01:42:26;94025.13;;;6.76;74.68
63097;BME280;49185;42.320;23.198;2023-04-12T01:44:53;94021.03;;;6.85;73.32
63097;BME280;49185;42.320;23.198;2023-04-12T01:47:18;94024.66;;;6.62;74.77
63097;BME280;49185;42.320;23.198;2023-04-12T01:50:24;94026.28;;;7.63;70.58
63097;BME280;49185;42.320;23.198;2023-04-12T01:52:58;94016.72;;;6.62;74.01
63097;BME280;49185;42.320;23.198;2023-04-12T01:55:28;94017.44;;;6.91;74.31
63097;BME280;49185;42.320;23.198;2023-04-12T01:57:56;94024.66;;;6.96;73.10
63097;BME280;49185;42.320;23.198;2023-04-12T02:00:22;94019.94;;;6.47;75.36
63097;BME280;49185;42.320;23.198;2023-04-12T02:02:48;94026.59;;;6.33;76.10
63097;BME280;49185;42.320;23.198;2023-04-12T02:05:13;94028.00;;;5.95;77.58
63097;BME280;49185;42.320;23.198;2023-04-12T02:07:40;94029.06;;;5.65;78.75
63097;BME280;49185;42.320;23.198;2023-04-12T02:10:06;94016.56;;;5.60;79.14
63097;BME280;49185;42.320;23.198;2023-04-12T02:12:31;94025.34;;;5.49;79.87
63097;BME280;49185;42.320;23.198;2023-04-12T02:14:57;94015.59;;;5.38;80.06
63097;BME280;49185;42.320;23.198;2023-04-12T02:17:22;93999.81;;;5.26;81.07
63097;BME280;49185;42.320;23.198;2023-04-12T02:19:47;93998.31;;;5.59;79.13
63097;BME280;49185;42.320;23.198;2023-04-12T02:22:13;94002.06;;;5.34;80.41
63097;BME280;49185;42.320;23.198;2023-04-12T02:24:38;94003.84;;;6.15;77.61
63097;BME280;49185;42.320;23.198;2023-04-12T02:27:04;94002.47;;;6.46;75.83
63097;BME280;49185;42.320;23.198;2023-04-12T02:29:29;94000.16;;;5.99;77.51
63097;BME280;49185;42.320;23.198;2023-04-12T02:31:55;93991.16;;;5.71;79.07
63097;BME280;49185;42.320;23.198;2023-04-12T02:34:20;93992.56;;;5.90;78.63
63097;BME280;49185;42.320;23.198;2023-04-12T02:36:47;93989.03;;;5.97;78.70
63097;BME280;49185;42.320;23.198;2023-04-12T02:39:12;93984.31;;;6.67;76.05
63097;BME280;49185;42.320;23.198;2023-04-12T02:41:38;93976.47;;;6.94;74.03
63097;BME280;49185;42.320;23.198;2023-04-12T02:44:03;93980.59;;;6.84;74.16
63097;BME280;49185;42.320;23.198;2023-04-12T02:46:29;93988.25;;;6.64;75.15
63097;BME280;49185;42.320;23.198;2023-04-12T02:48:54;93980.81;;;6.83;74.51
63097;BME280;49185;42.320;23.198;2023-04-12T02:51:19;93980.31;;;6.47;75.94
63097;BME280;49185;42.320;23.198;2023-04-12T02:53:45;93975.59;;;6.49;76.84
63097;BME280;49185;42.320;23.198;2023-04-12T02:56:10;93970.78;;;7.02;74.53
63097;BME280;49185;42.320;23.198;2023-04-12T02:58:36;93969.00;;;7.30;72.99
63097;BME280;49185;42.320;23.198;2023-04-12T03:01:02;93970.84;;;7.29;73.45
63097;BME280;49185;42.320;23.198;2023-04-12T03:03:27;93977.28;;;6.94;74.55
63097;BME280;49185;42.320;23.198;2023-04-12T03:05:53;93974.38;;;6.57;77.00
63097;BME280;49185;42.320;23.198;2023-04-12T03:08:19;93977.22;;;7.11;74.58
63097;BME280;49185;42.320;23.198;2023-04-12T03:10:44;93971.41;;;6.70;76.61
63097;BME280;49185;42.320;23.198;2023-04-12T03:13:09;93973.50;;;6.51;78.28
63097;BME280;49185;42.320;23.198;2023-04-12T03:15:35;93969.97;;;6.45;79.79
63097;BME280;49185;42.320;23.198;2023-04-12T03:18:00;93975.13;;;7.13;77.31
63097;BME280;49185;42.320;23.198;2023-04-12T03:20:26;93976.66;;;6.87;78.59
63097;BME280;49185;42.320;23.198;2023-04-12T03:22:51;93966.78;;;6.99;79.21
63097;BME280;49185;42.320;23.198;2023-04-12T03:25:16;93973.31;;;7.14;76.91
63097;BME280;49185;42.320;23.198;2023-04-12T03:27:42;93971.16;;;7.55;73.18
63097;BME280;49185;42.320;23.198;2023-04-12T03:30:08;93972.81;;;7.39;78.21
63097;BME280;49185;42.320;23.198;2023-04-12T03:32:33;93971.19;;;6.94;80.78
63097;BME280;49185;42.320;23.198;2023-04-12T03:34:59;93972.13;;;6.65;83.28
63097;BME280;49185;42.320;23.198;2023-04-12T03:37:24;93976.97;;;6.91;82.68
63097;BME280;49185;42.320;23.198;2023-04-12T03:39:50;93980.13;;;6.71;82.90
63097;BME280;49185;42.320;23.198;2023-04-12T03:42:15;93981.25;;;6.41;85.34
63097;BME280;49185;42.320;23.198;2023-04-12T03:44:41;93984.72;;;6.41;86.03
63097;BME280;49185;42.320;23.198;2023-04-12T03:47:06;93985.75;;;6.57;84.58
63097;BME280;49185;42.320;23.198;2023-04-12T03:49:31;93982.63;;;6.43;86.19
63097;BME280;49185;42.320;23.198;2023-04-12T03:51:57;93990.47;;;6.38;85.83
63097;BME280;49185;42.320;23.198;2023-04-12T03:54:22;93984.81;;;6.46;85.74
63097;BME280;49185;42.320;23.198;2023-04-12T03:56:48;93983.91;;;6.58;86.11
63097;BME280;49185;42.320;23.198;2023-04-12T03:59:13;93988.03;;;6.88;85.78
63097;BME280;49185;42.320;23.198;2023-04-12T04:01:40;93988.50;;;6.84;85.76
63097;BME280;49185;42.320;23.198;2023-04-12T04:04:05;93987.97;;;6.82;86.43
63097;BME280;49185;42.320;23.198;2023-04-12T04:06:31;93996.13;;;7.20;84.74
63097;BME280;49185;42.320;23.198;2023-04-12T04:08:56;94015.72;;;7.02;86.42
63097;BME280;49185;42.320;23.198;2023-04-12T04:11:22;94017.28;;;6.98;84.82
63097;BME280;49185;42.320;23.198;2023-04-12T04:13:48;94015.13;;;6.78;84.64
63097;BME280;49185;42.320;23.198;2023-04-12T04:16:13;94024.25;;;6.53;87.74
63097;BME280;49185;42.320;23.198;2023-04-12T04:18:39;94017.22;;;6.59;87.96
63097;BME280;49185;42.320;23.198;2023-04-12T04:21:04;94022.75;;;6.23;90.87
63097;BME280;49185;42.320;23.198;2023-04-12T04:23:32;94032.72;;;6.04;93.08
63097;BME280;49185;42.320;23.198;2023-04-12T04:25:57;94023.56;;;5.95;93.80
63097;BME280;49185;42.320;23.198;2023-04-12T04:28:22;94025.69;;;6.10;92.51
63097;BME280;49185;42.320;23.198;2023-04-12T04:30:48;94027.16;;;6.35;91.18
63097;BME280;49185;42.320;23.198;2023-04-12T04:33:13;94029.38;;;6.26;90.71
63097;BME280;49185;42.320;23.198;2023-04-12T04:35:39;94036.38;;;6.32;90.19
63097;BME280;49185;42.320;23.198;2023-04-12T04:38:04;94034.84;;;6.70;83.81
63097;BME280;49185;42.320;23.198;2023-04-12T04:40:31;94029.63;;;6.75;84.49
63097;BME280;49185;42.320;23.198;2023-04-12T04:42:56;94033.38;;;6.79;82.89
63097;BME280;49185;42.320;23.198;2023-04-12T04:45:22;94034.22;;;6.80;84.83
63097;BME280;49185;42.320;23.198;2023-04-12T04:47:48;94048.47;;;7.18;80.51
63097;BME280;49185;42.320;23.198;2023-04-12T04:50:14;94046.91;;;7.39;80.35
63097;BME280;49185;42.320;23.198;2023-04-12T04:52:39;94047.56;;;7.29;78.24
63097;BME280;49185;42.320;23.198;2023-04-12T04:55:05;94043.34;;;7.28;78.54
63097;BME280;49185;42.320;23.198;2023-04-12T04:57:30;94047.94;;;7.38;77.95
63097;BME280;49185;42.320;23.198;2023-04-12T04:59:56;94053.69;;;7.30;77.44
63097;BME280;49185;42.320;23.198;2023-04-12T05:02:21;94063.03;;;7.37;78.06
63097;BME280;49185;42.320;23.198;2023-04-12T05:04:48;94064.59;;;7.16;80.58
63097;BME280;49185;42.320;23.198;2023-04-12T05:07:13;94058.34;;;7.22;78.48
63097;BME280;49185;42.320;23.198;2023-04-12T05:09:39;94065.03;;;7.96;75.40
63097;BME280;49185;42.320;23.198;2023-04-12T05:12:04;94073.28;;;8.00;77.46
63097;BME280;49185;42.320;23.198;2023-04-12T05:14:29;94076.00;;;8.05;74.58
63097;BME280;49185;42.320;23.198;2023-04-12T05:16:55;94077.69;;;7.89;77.24
63097;BME280;49185;42.320;23.198;2023-04-12T05:19:20;94073.13;;;7.63;76.46
63097;BME280;49185;42.320;23.198;2023-04-12T05:21:46;94080.47;;;7.77;76.19
63097;BME280;49185;42.320;23.198;2023-04-12T05:24:11;94074.19;;;7.62;73.75
63097;BME280;49185;42.320;23.198;2023-04-12T05:26:36;94082.84;;;7.79;74.40
63097;BME280;49185;42.320;23.198;2023-04-12T05:29:02;94092.91;;;8.26;72.33
63097;BME280;49185;42.320;23.198;2023-04-12T05:31:27;94091.41;;;8.08;72.47
63097;BME280;49185;42.320;23.198;2023-04-12T05:33:53;94090.09;;;8.11;70.54
63097;BME280;49185;42.320;23.198;2023-04-12T05:36:19;94090.81;;;8.01;69.16
63097;BME280;49185;42.320;23.198;2023-04-12T05:38:44;94081.31;;;8.05;69.58
63097;BME280;49185;42.320;23.198;2023-04-12T05:41:10;94087.81;;;8.20;69.96
63097;BME280;49185;42.320;23.198;2023-04-12T05:43:35;94090.31;;;8.31;68.95
63097;BME280;49185;42.320;23.198;2023-04-12T05:46:01;94091.09;;;8.86;69.05
63097;BME280;49185;42.320;23.198;2023-04-12T05:48:26;94092.53;;;8.40;72.08
63097;BME280;49185;42.320;23.198;2023-04-12T05:50:53;94092.66;;;8.01;74.33
63097;BME280;49185;42.320;23.198;2023-04-12T05:53:20;94102.38;;;8.17;73.91
63097;BME280;49185;42.320;23.198;2023-04-12T05:55:45;94098.88;;;8.61;69.69
63097;BME280;49185;42.320;23.198;2023-04-12T05:58:11;94100.16;;;8.90;68.30
63097;BME280;49185;42.320;23.198;2023-04-12T06:00:38;94092.56;;;9.04;66.21
63097;BME280;49185;42.320;23.198;2023-04-12T06:03:03;94093.22;;;8.84;67.75
63097;BME280;49185;42.320;23.198;2023-04-12T06:05:29;94091.25;;;9.02;67.72
63097;BME280;49185;42.320;23.198;2023-04-12T06:07:54;94089.06;;;9.36;67.51
63097;BME280;49185;42.320;23.198;2023-04-12T06:10:20;94083.53;;;9.43;65.52
63097;BME280;49185;42.320;23.198;2023-04-12T06:12:46;94080.47;;;9.66;65.64
63097;BME280;49185;42.320;23.198;2023-04-12T06:15:11;94086.47;;;9.46;65.70
63097;BME280;49185;42.320;23.198;2023-04-12T06:17:37;94075.78;;;8.93;67.40
63097;BME280;49185;42.320;23.198;2023-04-12T06:20:03;94080.06;;;10.00;59.36
63097;BME280;49185;42.320;23.198;2023-04-12T06:22:29;94073.63;;;9.81;58.32
63097;BME280;49185;42.320;23.198;2023-04-12T06:24:54;94082.53;;;9.54;59.06
63097;BME280;49185;42.320;23.198;2023-04-12T06:27:20;94080.50;;;9.72;60.07
63097;BME280;49185;42.320;23.198;2023-04-12T06:29:45;94085.06;;;9.81;57.75
63097;BME280;49185;42.320;23.198;2023-04-12T06:32:10;94090.78;;;9.58;58.38
63097;BME280;49185;42.320;23.198;2023-04-12T06:34:36;94091.47;;;9.38;59.02
63097;BME280;49185;42.320;23.198;2023-04-12T06:37:01;94093.41;;;9.10;59.21
63097;BME280;49185;42.320;23.198;2023-04-12T06:39:27;94097.00;;;8.93;60.98
63097;BME280;49185;42.320;23.198;2023-04-12T06:41:52;94098.69;;;9.05;62.16
63097;BME280;49185;42.320;23.198;2023-04-12T06:44:17;94097.50;;;8.90;59.72
63097;BME280;49185;42.320;23.198;2023-04-12T06:46:43;94112.63;;;8.90;61.90
63097;BME280;49185;42.320;23.198;2023-04-12T06:49:08;94107.47;;;8.78;64.11
63097;BME280;49185;42.320;23.198;2023-04-12T06:51:33;94110.31;;;9.36;59.97
63097;BME280;49185;42.320;23.198;2023-04-12T06:53:59;94106.47;;;9.17;62.75
63097;BME280;49185;42.320;23.198;2023-04-12T06:56:24;94108.84;;;9.18;61.40
63097;BME280;49185;42.320;23.198;2023-04-12T06:58:50;94104.13;;;9.25;60.22
63097;BME280;49185;42.320;23.198;2023-04-12T07:01:15;94115.91;;;9.40;60.15
63097;BME280;49185;42.320;23.198;2023-04-12T07:03:41;94123.63;;;9.41;61.40
63097;BME280;49185;42.320;23.198;2023-04-12T07:06:06;94114.88;;;9.03;62.07
63097;BME280;49185;42.320;23.198;2023-04-12T07:08:33;94116.00;;;9.55;58.75
63097;BME280;49185;42.320;23.198;2023-04-12T07:10:59;94112.09;;;9.25;58.35
63097;BME280;49185;42.320;23.198;2023-04-12T07:13:24;94112.59;;;9.17;60.97
63097;BME280;49185;42.320;23.198;2023-04-12T07:15:51;94123.94;;;9.12;61.19
63097;BME280;49185;42.320;23.198;2023-04-12T07:18:16;94124.41;;;9.37;60.21
63097;BME280;49185;42.320;23.198;2023-04-12T07:20:42;94125.69;;;8.97;63.40
63097;BME280;49185;42.320;23.198;2023-04-12T07:23:07;94126.22;;;8.99;62.16
63097;BME280;49185;42.320;23.198;2023-04-12T07:25:36;94116.00;;;9.12;61.59
63097;BME280;49185;42.320;23.198;2023-04-12T07:28:01;94116.06;;;8.90;61.69
63097;BME280;49185;42.320;23.198;2023-04-12T07:30:27;94117.75;;;9.87;61.13
63097;BME280;49185;42.320;23.198;2023-04-12T07:32:53;94126.25;;;10.52;58.25
63097;BME280;49185;42.320;23.198;2023-04-12T07:35:19;94117.59;;;9.51;59.74
63097;BME280;49185;42.320;23.198;2023-04-12T07:37:44;94119.09;;;9.89;60.42
63097;BME280;49185;42.320;23.198;2023-04-12T07:40:10;94107.75;;;9.52;59.79
63097;BME280;49185;42.320;23.198;2023-04-12T07:42:35;94114.41;;;10.17;56.60
63097;BME280;49185;42.320;23.198;2023-04-12T07:45:01;94115.19;;;10.13;56.41
63097;BME280;49185;42.320;23.198;2023-04-12T07:47:26;94115.97;;;10.03;56.79
63097;BME280;49185;42.320;23.198;2023-04-12T07:49:52;94094.38;;;9.89;56.83
63097;BME280;49185;42.320;23.198;2023-04-12T07:52:17;94087.22;;;9.95;57.15
63097;BME280;49185;42.320;23.198;2023-04-12T07:54:43;94089.91;;;10.00;56.18
63097;BME280;49185;42.320;23.198;2023-04-12T07:57:08;94095.09;;;9.69;57.99
63097;BME280;49185;42.320;23.198;2023-04-12T07:59:33;94097.84;;;9.42;56.83
63097;BME280;49185;42.320;23.198;2023-04-12T08:01:59;94104.78;;;9.43;57.30
63097;BME280;49185;42.320;23.198;2023-04-12T08:04:24;94106.38;;;9.44;59.01
63097;BME280;49185;42.320;23.198;2023-04-12T08:06:50;94086.59;;;9.67;58.20
63097;BME280;49185;42.320;23.198;2023-04-12T08:09:16;94097.25;;;9.72;58.75
63097;BME280;49185;42.320;23.198;2023-04-12T08:11:41;94088.47;;;9.77;60.19
63097;BME280;49185;42.320;23.198;2023-04-12T08:14:07;94087.22;;;9.84;58.03
63097;BME280;49185;42.320;23.198;2023-04-12T08:16:32;94086.41;;;9.89;59.36
63097;BME280;49185;42.320;23.198;2023-04-12T08:18:58;94074.72;;;9.85;58.53
63097;BME280;49185;42.320;23.198;2023-04-12T08:21:24;94075.34;;;10.18;58.94
63097;BME280;49185;42.320;23.198;2023-04-12T08:23:49;94071.88;;;10.12;59.47
63097;BME280;49185;42.320;23.198;2023-04-12T08:26:14;94068.03;;;10.71;57.62
63097;BME280;49185;42.320;23.198;2023-04-12T08:28:40;94066.66;;;10.53;58.79
63097;BME280;49185;42.320;23.198;2023-04-12T08:31:05;94067.22;;;10.66;57.21
63097;BME280;49185;42.320;23.198;2023-04-12T08:33:31;94058.94;;;11.29;55.46
63097;BME280;49185;42.320;23.198;2023-04-12T08:35:57;94060.75;;;11.44;57.52
63097;BME280;49185;42.320;23.198;2023-04-12T08:38:23;94059.88;;;12.39;54.64
63097;BME280;49185;42.320;23.198;2023-04-12T08:40:48;94055.25;;;12.89;53.55
63097;BME280;49185;42.320;23.198;2023-04-12T08:43:15;94047.06;;;13.10;52.28
63097;BME280;49185;42.320;23.198;2023-04-12T08:45:41;94045.72;;;12.78;50.42
63097;BME280;49185;42.320;23.198;2023-04-12T08:48:07;94036.41;;;12.41;49.25
63097;BME280;49185;42.320;23.198;2023-04-12T08:50:33;94042.34;;;11.52;50.43
63097;BME280;49185;42.320;23.198;2023-04-12T08:52:59;94045.91;;;11.17;53.18
63097;BME280;49185;42.320;23.198;2023-04-12T08:55:24;94060.31;;;11.00;56.68
63097;BME280;49185;42.320;23.198;2023-04-12T08:57:53;94055.25;;;10.78;58.32
63097;BME280;49185;42.320;23.198;2023-04-12T09:00:19;94050.75;;;10.94;60.59
63097;BME280;49185;42.320;23.198;2023-04-12T09:02:45;94048.28;;;12.59;56.52
63097;BME280;49185;42.320;23.198;2023-04-12T09:05:10;94049.69;;;12.86;53.79
63097;BME280;49185;42.320;23.198;2023-04-12T09:07:36;94042.94;;;11.49;54.92
63097;BME280;49185;42.320;23.198;2023-04-12T09:10:01;94038.56;;;12.34;54.84
63097;BME280;49185;42.320;23.198;2023-04-12T09:12:27;94033.63;;;12.57;53.35
63097;BME280;49185;42.320;23.198;2023-04-12T09:15:10;94032.03;;;11.35;55.52
63097;BME280;49185;42.320;23.198;2023-04-12T09:17:35;94021.69;;;11.08;57.93
63097;BME280;49185;42.320;23.198;2023-04-12T09:20:02;94022.25;;;12.41;55.20
63097;BME280;49185;42.320;23.198;2023-04-12T09:22:34;94022.09;;;11.62;54.89
63097;BME280;49185;42.320;23.198;2023-04-12T09:25:00;94023.81;;;11.21;57.26
63097;BME280;49185;42.320;23.198;2023-04-12T09:27:26;94028.22;;;12.67;54.60
63097;BME280;49185;42.320;23.198;2023-04-12T09:30:05;94019.63;;;12.30;53.03
63097;BME280;49185;42.320;23.198;2023-04-12T09:32:31;94021.47;;;13.09;52.97
63097;BME280;49185;42.320;23.198;2023-04-12T09:34:57;94019.84;;;12.39;51.66
63097;BME280;49185;42.320;23.198;2023-04-12T09:37:23;94002.06;;;12.64;49.75
63097;BME280;49185;42.320;23.198;2023-04-12T09:39:58;94011.19;;;11.58;47.87
63097;BME280;49185;42.320;23.198;2023-04-12T09:42:23;94017.63;;;12.91;47.83
63097;BME280;49185;42.320;23.198;2023-04-12T09:44:49;94001.56;;;12.96;47.30
63097;BME280;49185;42.320;23.198;2023-04-12T09:47:14;94008.63;;;12.42;43.90
63097;BME280;49185;42.320;23.198;2023-04-12T09:49:41;94001.59;;;12.17;44.41
63097;BME280;49185;42.320;23.198;2023-04-12T09:52:09;94003.03;;;12.78;44.43
63097;BME280;49185;42.320;23.198;2023-04-12T09:54:42;94003.19;;;12.18;42.17
63097;BME280;49185;42.320;23.198;2023-04-12T09:57:08;93994.25;;;11.28;43.57
63097;BME280;49185;42.320;23.198;2023-04-12T09:59:41;94006.53;;;11.09;42.82
63097;BME280;49185;42.320;23.198;2023-04-12T10:02:19;93989.91;;;12.52;39.49
63097;BME280;49185;42.320;23.198;2023-04-12T10:04:47;93986.38;;;13.45;39.35
63097;BME280;49185;42.320;23.198;2023-04-12T10:07:13;93984.91;;;14.01;38.45
63097;BME280;49185;42.320;23.198;2023-04-12T10:09:39;93971.69;;;13.66;36.23
63097;BME280;49185;42.320;23.198;2023-04-12T10:12:06;93978.03;;;13.76;38.50
63097;BME280;49185;42.320;23.198;2023-04-12T10:14:34;93976.81;;;13.63;35.57
63097;BME280;49185;42.320;23.198;2023-04-12T10:17:01;93953.25;;;13.46;37.05
63097;BME280;49185;42.320;23.198;2023-04-12T10:19:29;93984.38;;;13.56;35.15
63097;BME280;49185;42.320;23.198;2023-04-12T10:21:56;93971.09;;;14.32;35.62
63097;BME280;49185;42.320;23.198;2023-04-12T10:24:23;93968.25;;;14.94;35.07
63097;BME280;49185;42.320;23.198;2023-04-12T10:26:49;93959.16;;;14.95;35.36
63097;BME280;49185;42.320;23.198;2023-04-12T10:29:22;93960.94;;;14.48;34.30
63097;BME280;49185;42.320;23.198;2023-04-12T10:31:48;93949.03;;;14.02;33.21
63097;BME280;49185;42.320;23.198;2023-04-12T10:34:14;93952.38;;;13.94;32.76
63097;BME280;49185;42.320;23.198;2023-04-12T10:37:00;93938.63;;;14.38;32.03
63097;BME280;49185;42.320;23.198;2023-04-12T10:39:41;93924.38;;;14.76;31.96
63097;BME280;49185;42.320;23.198;2023-04-12T10:42:26;93895.94;;;14.47;32.31
63097;BME280;49185;42.320;23.198;2023-04-12T10:44:56;93932.00;;;14.50;33.07
63097;BME280;49185;42.320;23.198;2023-04-12T10:50:27;93934.25;;;14.10;30.61
63097;BME280;49185;42.320;23.198;2023-04-12T10:55:37;93916.97;;;15.42;30.13
63097;BME280;49185;42.320;23.198;2023-04-12T10:58:03;93915.41;;;15.41;29.93
63097;BME280;49185;42.320;23.198;2023-04-12T11:03:22;93901.06;;;15.87;30.48
63097;BME280;49185;42.320;23.198;2023-04-12T11:06:00;93902.84;;;16.51;27.71
63097;BME280;49185;42.320;23.198;2023-04-12T11:08:31;93891.47;;;15.59;28.07
63097;BME280;49185;42.320;23.198;2023-04-12T11:11:04;93891.28;;;15.41;27.91
63097;BME280;49185;42.320;23.198;2023-04-12T11:13:37;93886.03;;;16.00;27.70
63097;BME280;49185;42.320;23.198;2023-04-12T11:16:04;93890.16;;;14.59;28.44
63097;BME280;49185;42.320;23.198;2023-04-12T11:18:32;93897.50;;;13.58;29.33
63097;BME280;49185;42.320;23.198;2023-04-12T11:20:58;93894.50;;;13.17;28.11
63097;BME280;49185;42.320;23.198;2023-04-12T11:23:23;93894.13;;;13.04;28.80
63097;BME280;49185;42.320;23.198;2023-04-12T11:25:50;93881.84;;;14.55;28.61
63097;BME280;49185;42.320;23.198;2023-04-12T11:28:16;93883.19;;;16.19;25.60
63097;BME280;49185;42.320;23.198;2023-04-12T11:30:55;93869.97;;;15.86;24.49
63097;BME280;49185;42.320;23.198;2023-04-12T11:33:37;93879.25;;;15.38;24.43
63097;BME280;49185;42.320;23.198;2023-04-12T11:36:08;93876.00;;;15.28;24.82
63097;BME280;49185;42.320;23.198;2023-04-12T11:38:35;93881.69;;;15.90;25.35
63097;BME280;49185;42.320;23.198;2023-04-12T11:41:01;93881.63;;;15.68;23.79
63097;BME280;49185;42.320;23.198;2023-04-12T11:43:26;93883.97;;;16.20;24.82
63097;BME280;49185;42.320;23.198;2023-04-12T11:45:56;93884.63;;;16.48;23.86
63097;BME280;49185;42.320;23.198;2023-04-12T11:48:22;93883.84;;;15.24;24.13
63097;BME280;49185;42.320;23.198;2023-04-12T11:50:47;93867.72;;;14.36;25.62
63097;BME280;49185;42.320;23.198;2023-04-12T11:53:13;93877.50;;;14.78;24.47
63097;BME280;49185;42.320;23.198;2023-04-12T11:55:39;93877.69;;;15.37;23.80
63097;BME280;49185;42.320;23.198;2023-04-12T11:58:05;93874.22;;;16.24;22.71
63097;BME280;49185;42.320;23.198;2023-04-12T12:00:31;93872.28;;;16.16;22.76
63097;BME280;49185;42.320;23.198;2023-04-12T12:02:56;93860.28;;;15.77;23.51
63097;BME280;49185;42.320;23.198;2023-04-12T12:05:22;93888.91;;;15.26;24.15
63097;BME280;49185;42.320;23.198;2023-04-12T12:07:48;93895.75;;;14.24;24.13
63097;BME280;49185;42.320;23.198;2023-04-12T12:10:14;93889.13;;;13.84;24.20
63097;BME280;49185;42.320;23.198;2023-04-12T12:12:42;93901.63;;;14.08;25.65
63097;BME280;49185;42.320;23.198;2023-04-12T12:15:08;93907.00;;;14.59;25.54
63097;BME280;49185;42.320;23.198;2023-04-12T12:17:36;93898.91;;;14.78;25.72
63097;BME280;49185;42.320;23.198;2023-04-12T12:20:01;93905.41;;;14.39;26.85
63097;BME280;49185;42.320;23.198;2023-04-12T12:22:29;93902.50;;;13.84;26.13
63097;BME280;49185;42.320;23.198;2023-04-12T12:24:56;93903.78;;;14.05;26.22
63097;BME280;49185;42.320;23.198;2023-04-12T12:27:35;93900.88;;;14.73;26.26
63097;BME280;49185;42.320;23.198;2023-04-12T12:30:02;93908.31;;;14.43;26.59
63097;BME280;49185;42.320;23.198;2023-04-12T12:32:32;93903.28;;;14.55;27.41
63097;BME280;49185;42.320;23.198;2023-04-12T12:34:57;93900.56;;;14.41;25.34
63097;BME280;49185;42.320;23.198;2023-04-12T12:37:27;93900.69;;;14.83;24.82
63097;BME280;49185;42.320;23.198;2023-04-12T12:40:06;93907.53;;;14.56;25.88
63097;BME280;49185;42.320;23.198;2023-04-12T12:42:33;93898.22;;;14.21;25.34
63097;BME280;49185;42.320;23.198;2023-04-12T12:44:58;93907.63;;;13.99;26.20
63097;BME280;49185;42.320;23.198;2023-04-12T12:47:24;93903.78;;;14.05;25.11
63097;BME280;49185;42.320;23.198;2023-04-12T12:49:49;93905.59;;;14.10;25.89
63097;BME280;49185;42.320;23.198;2023-04-12T12:52:15;93914.84;;;13.61;25.14
63097;BME280;49185;42.320;23.198;2023-04-12T12:54:40;93893.84;;;13.30;25.60
63097;BME280;49185;42.320;23.198;2023-04-12T12:57:06;93906.63;;;13.33;25.87
63097;BME280;49185;42.320;23.198;2023-04-12T12:59:31;93908.56;;;13.52;25.59
63097;BME280;49185;42.320;23.198;2023-04-12T13:01:56;93888.63;;;14.01;27.20
63097;BME280;49185;42.320;23.198;2023-04-12T13:04:22;93908.41;;;14.19;26.06
63097;BME280;49185;42.320;23.198;2023-04-12T13:06:47;93911.53;;;13.88;25.54
63097;BME280;49185;42.320;23.198;2023-04-12T13:09:13;93910.50;;;13.46;22.72
63097;BME280;49185;42.320;23.198;2023-04-12T13:11:38;93904.13;;;13.18;24.97